Latest Weather Observations for Launceston Airport

IDT60801

Issued at 11:35 pm EDT Thursday 30 October 2014 (issued every 30 minutes, with the page automatically refreshed every 10 minutes)

About weather observations | Map of weather stations | Latest weather observations for TAS | Other Formats
Station Details ID: 091311 Name: LAUNCESTON AIRPORT Lat: -41.55 Lon: 147.21 Height: 166.9 m
Data from the previous 72 hours. | See also: Recent months at Launceston Airport
Date/Time
EDT
Temp
°C
App
Temp
°C
Dew
Point
Rel
Hum
%
Delta-T
°C
Wind Press
QNH
hPa
Press
MSL
hPa
Rain
since 9 am
mm
Dir
 
Spd
km/h
Gust
km/h
Spd
kts
Gust
kts
30/11:30pm 9.8 6.5 8.2 90 0.8 NNW 15 20 8 11 1010.0 1010.1 0.0
30/11:00pm 10.7 6.8 8.6 87 1.0 NNW 19 24 10 13 1010.4 1010.5 0.0
30/10:30pm 11.0 7.2 9.1 88 1.0 N 19 22 10 12 1010.4 1010.5 0.0
30/10:00pm 11.2 7.8 9.3 88 1.0 NNW 17 20 9 11 1010.3 1010.4 0.0
30/09:30pm 11.7 7.8 9.3 85 1.2 N 20 26 11 14 1009.9 1010.0 0.0
30/09:00pm 11.9 7.9 9.1 83 1.4 N 20 24 11 13 1009.8 1009.9 0.0
30/08:30pm 12.4 8.1 9.2 81 1.6 NNW 22 30 12 16 1009.5 1009.6 0.0
30/08:00pm 13.1 7.7 9.4 78 1.9 NW 28 33 15 18 1009.2 1009.3 0.0
30/07:30pm 13.7 8.7 9.4 75 2.2 NNW 26 32 14 17 1008.9 1009.0 0.0
30/07:00pm 14.6 10.0 9.6 72 2.6 NNW 24 30 13 16 1008.6 1008.7 0.0
30/06:30pm 15.3 10.3 9.7 69 2.9 NNW 26 33 14 18 1008.5 1008.6 0.0
30/06:00pm 15.8 10.5 9.9 68 3.1 N 28 33 15 18 1008.3 1008.4 0.0
30/05:30pm 15.7 9.6 9.8 68 3.1 N 32 41 17 22 1008.3 1008.4 0.0
30/05:00pm 16.0 10.3 9.9 67 3.2 NNW 30 39 16 21 1008.1 1008.1 0.0
30/04:30pm 15.7 9.7 10.0 69 3.0 NNW 32 43 17 23 1007.9 1007.9 0.0
30/04:00pm 17.0 10.9 10.6 66 3.5 NNW 33 41 18 22 1007.8 1007.8 0.0
30/03:30pm 15.9 8.8 9.6 66 3.3 NNW 37 50 20 27 1007.7 1007.7 0.0
30/03:00pm 15.8 8.8 10.1 69 3.0 NNW 37 46 20 25 1007.8 1007.8 0.0
30/02:30pm 15.8 9.1 9.7 67 3.2 NNW 35 48 19 26 1008.1 1008.1 0.0
30/02:00pm 15.8 9.6 9.5 66 3.3 NNW 32 43 17 23 1007.9 1007.9 0.0
30/01:30pm 16.8 10.6 10.2 65 3.5 NNW 33 41 18 22 1008.2 1008.3 0.0
30/01:00pm 16.9 10.9 10.1 64 3.6 NNW 32 41 17 22 1008.4 1008.5 0.0
30/12:31pm 16.8 10.8 10.0 64 3.6 NNW 32 50 17 27 1008.5 1008.6 0.0
30/12:30pm 16.9 10.5 9.3 61 4.0 NNW 33 50 18 27 1008.5 1008.6 0.0
30/12:00pm 16.6 11.3 10.0 65 3.5 NNW 28 39 15 21 1008.6 1008.7 0.0
30/11:30am 15.6 9.8 8.1 61 3.8 NNW 28 37 15 20 1008.8 1008.9 0.0
30/11:00am 15.3 9.8 9.2 67 3.2 NNW 28 35 15 19 1009.3 1009.4 0.0
30/10:30am 15.7 10.3 9.4 66 3.3 NNW 28 39 15 21 1009.3 1009.4 0.0
30/10:00am 14.9 8.9 8.6 66 3.2 NNW 30 39 16 21 1009.5 1009.6 0.0
30/09:30am 14.2 8.7 9.0 71 2.7 NNW 28 37 15 20 1009.4 1009.5 0.0
30/09:00am 12.8 7.9 8.5 75 2.2 NNW 24 32 13 17 1009.7 1009.8 0.0
30/08:30am 12.1 6.5 8.6 79 1.8 N 28 35 15 19 1009.7 1009.8 0.0
30/08:00am 11.1 5.8 8.5 84 1.3 NNW 26 35 14 19 1009.6 1009.7 0.0
30/07:30am 9.6 5.3 7.9 89 0.8 N 20 28 11 15 1009.6 1009.7 0.0
30/07:00am 8.8 5.4 7.6 92 0.6 NNW 15 19 8 10 1009.6 1009.7 0.0
30/06:30am 7.3 3.9 6.1 92 0.5 NNW 13 17 7 9 1009.1 1009.2 0.0
30/06:00am 7.6 3.4 5.9 89 0.8 N 17 20 9 11 1009.0 1009.1 0.0
30/05:30am 7.9 3.8 6.4 90 0.7 N 17 20 9 11 1008.9 1009.0 0.0
30/05:00am 8.4 4.5 7.0 91 0.7 N 17 24 9 13 1008.7 1008.8 0.0
30/04:30am 8.4 4.5 6.9 90 0.7 N 17 22 9 12 1009.1 1009.2 0.0
30/04:00am 9.1 4.7 7.5 90 0.8 N 20 26 11 14 1009.0 1009.1 0.0
30/03:30am 9.1 5.4 8.0 93 0.5 NNW 17 24 9 13 1009.0 1009.1 0.0
30/03:00am 8.9 4.7 7.5 91 0.7 N 19 24 10 13 1008.9 1009.0 0.0
30/02:30am 9.2 4.9 7.8 91 0.7 N 20 24 11 13 1008.9 1009.0 0.0
30/02:00am 9.1 5.0 7.9 92 0.6 NNW 19 24 10 13 1009.1 1009.2 0.0
30/01:30am 9.5 5.8 8.1 91 0.7 NNW 17 24 9 13 1009.3 1009.4 0.0
30/01:00am 9.7 5.6 8.0 89 0.8 N 19 28 10 15 1009.7 1009.8 0.0
30/12:30am 9.4 5.6 7.5 88 0.9 N 17 24 9 13 1009.9 1010.0 0.0
30/12:00am 10.0 5.8 8.1 88 0.9 N 20 28 11 15 1010.0 1010.1 0.0
 
Date/Time
EDT
Temp
°C
App
Temp
°C
Dew
Point
Rel
Hum
%
Delta-T
°C
Wind Press
QNH
hPa
Press
MSL
hPa
Rain
since 9 am
mm
Dir
 
Spd
km/h
Gust
km/h
Spd
kts
Gust
kts
29/11:30pm 9.8 5.8 8.1 89 0.8 N 19 26 10 14 1010.3 1010.4 0.0
29/11:00pm 10.3 6.1 8.4 88 0.9 NNW 20 28 11 15 1010.3 1010.4 0.0
29/10:30pm 10.1 5.5 8.0 87 1.0 N 22 28 12 15 1010.2 1010.3 0.0
29/10:00pm 10.8 4.7 8.4 85 1.2 N 30 39 16 21 1010.1 1010.2 0.0
29/09:30pm 10.9 6.0 8.3 84 1.3 N 24 32 13 17 1010.2 1010.3 0.0
29/09:00pm 10.7 7.0 7.9 83 1.4 NNW 17 22 9 12 1010.1 1010.2 0.0
29/08:30pm 11.3 6.7 8.2 81 1.5 NNW 22 30 12 16 1010.0 1010.1 0.0
29/08:00pm 11.9 6.2 8.4 79 1.7 NNW 28 39 15 21 1009.5 1009.6 0.0
29/07:30pm 13.0 7.1 8.9 76 2.1 NNW 30 39 16 21 1009.6 1009.7 0.0
29/07:00pm 13.6 7.2 8.4 71 2.6 NNW 32 44 17 24 1009.2 1009.3 0.0
29/06:30pm 13.9 7.6 8.9 72 2.6 NNW 32 44 17 24 1009.0 1009.1 0.0
29/06:00pm 14.8 9.6 9.0 68 3.0 NNW 26 33 14 18 1009.0 1009.1 0.0
29/05:30pm 15.5 10.4 9.2 66 3.3 N 26 39 14 21 1009.0 1009.1 0.0
29/05:00pm 14.7 9.2 9.1 69 2.9 N 28 35 15 19 1009.0 1009.1 0.0
29/04:30pm 15.0 8.4 8.7 66 3.2 N 33 43 18 23 1009.1 1009.2 0.0
29/04:00pm 14.0 7.4 8.6 70 2.7 N 33 46 18 25 1009.5 1009.6 0.0
29/03:30pm 15.1 8.2 8.8 66 3.2 N 35 46 19 25 1009.6 1009.7 0.0
29/03:08pm 14.4 8.0 8.6 68 3.0 N 32 50 17 27 1009.9 1010.0 0.0
29/03:00pm 14.9 7.6 8.8 67 3.1 N 37 48 20 26 1010.0 1010.1 0.0
29/02:30pm 14.3 7.5 7.8 65 3.3 N 33 50 18 27 1010.3 1010.4 0.0
29/02:00pm 14.9 8.6 7.2 60 3.8 NNW 30 41 16 22 1010.6 1010.7 0.0
29/01:30pm 15.7 8.9 7.0 56 4.3 NNW 32 41 17 22 1010.9 1011.0 0.0
29/01:00pm 14.7 8.6 6.8 59 3.9 NNW 28 39 15 21 1011.0 1011.1 0.0
29/12:30pm 13.9 6.9 6.0 59 3.8 NNW 32 48 17 26 1011.4 1011.5 0.0
29/12:00pm 13.9 7.5 7.0 63 3.4 N 30 41 16 22 1011.8 1011.9 0.0
29/11:30am 14.3 7.6 5.4 55 4.2 NW 30 43 16 23 1012.1 1012.1 0.0
29/11:00am 13.1 7.6 4.0 54 4.2 NW 22 37 12 20 1012.5 1012.5 0.0
29/10:30am 13.4 7.6 4.3 54 4.2 NW 24 41 13 22 1012.7 1012.7 0.0
29/10:00am 12.8 6.1 3.7 54 4.1 NW 28 39 15 21 1012.8 1012.8 0.0
29/09:30am 12.0 5.4 4.2 59 3.5 NNW 28 37 15 20 1012.8 1012.8 0.0
29/09:00am 11.2 5.0 4.4 63 3.1 NNW 26 32 14 17 1012.6 1012.6 0.0
29/08:30am 9.7 4.2 4.1 68 2.5 NNW 22 30 12 16 1012.4 1012.4 0.0
29/08:00am 8.5 3.2 3.1 69 2.3 NNW 20 24 11 13 1012.5 1012.5 0.0
29/07:30am 6.7 2.3 2.6 75 1.7 N 15 20 8 11 1012.7 1012.7 0.0
29/07:00am 5.8 1.3 2.1 77 1.5 N 15 17 8 9 1012.5 1012.5 0.0
29/06:30am 3.1 -1.7 0.5 83 1.0 N 15 17 8 9 1012.6 1012.6 0.0
29/06:00am 2.9 -1.6 0.0 81 1.1 N 13 17 7 9 1012.0 1012.0 0.0
29/05:30am 2.6 -2.3 -0.7 79 1.2 N 15 19 8 10 1011.3 1011.4 0.0
29/05:00am 4.5 0.0 -0.3 71 1.8 N 13 19 7 10 1011.0 1011.1 0.0
29/04:30am 4.5 0.2 1.0 78 1.4 NNE 13 17 7 9 1010.7 1010.8 0.0
29/04:00am 3.4 -1.8 0.3 80 1.2 NNW 17 19 9 10 1010.1 1010.2 0.0
29/03:30am 4.5 -0.6 0.6 76 1.5 NNW 17 20 9 11 1009.8 1009.9 0.0
29/03:00am 3.8 -1.4 0.1 77 1.4 NNW 17 20 9 11 1009.7 1009.8 0.0
29/02:30am 3.8 -0.3 0.0 76 1.4 NNW 11 15 6 8 1009.5 1009.6 0.0
29/02:00am 4.2 0.3 -1.6 66 2.1 N 9 17 5 9 1009.2 1009.3 0.0
29/01:30am 6.2 2.1 -0.3 63 2.5 W 11 17 6 9 1008.8 1008.9 0.0
29/01:00am 6.1 0.9 0.0 65 2.4 WNW 17 30 9 16 1009.0 1009.1 0.0
29/12:30am 6.2 1.7 -0.5 62 2.6 NW 13 19 7 10 1009.0 1009.1 0.0
29/12:00am 7.3 1.9 -1.1 55 3.2 NNW 17 26 9 14 1008.5 1008.6 0.0
 
Date/Time
EDT
Temp
°C
App
Temp
°C
Dew
Point
Rel
Hum
%
Delta-T
°C
Wind Press
QNH
hPa
Press
MSL
hPa
Rain
since 9 am
mm
Dir
 
Spd
km/h
Gust
km/h
Spd
kts
Gust
kts
28/11:30pm 7.1 1.5 -0.1 60 2.8 NE 19 24 10 13 1008.2 1008.3 0.0
28/11:00pm 8.5 2.7 -1.3 50 3.8 WNW 19 26 10 14 1007.8 1007.8 0.0
28/10:30pm 8.3 2.3 -1.2 51 3.7 W 20 26 11 14 1007.4 1007.4 0.0
28/10:00pm 8.7 1.2 -1.7 48 4.0 NW 28 41 15 22 1007.4 1007.4 0.0
28/09:49pm 8.4 0.8 -2.0 48 4.0 NW 28 39 15 21 1007.1 1007.1 0.0
28/09:30pm 6.8 1.3 -2.4 52 3.4 NW 17 20 9 11 1007.0 1007.0 0.0
28/09:00pm 5.7 1.1 -4.4 48 3.5 NNW 11 19 6 10 1006.8 1006.8 0.0
28/08:30pm 7.9 3.0 -3.0 46 4.0 NW 13 19 7 10 1006.4 1006.4 0.0
28/08:00pm 8.2 2.9 -0.8 53 3.5 WNW 17 28 9 15 1005.7 1005.7 0.0
28/07:30pm 8.4 1.1 -0.1 55 3.4 W 28 37 15 20 1004.6 1004.7 0.0
28/07:00pm 9.9 1.2 -0.3 49 4.1 W 35 48 19 26 1004.0 1004.1 0.0
28/06:31pm 11.2 1.6 -1.5 41 5.0 W 39 57 21 31 1002.9 1002.9 0.0
28/06:30pm 11.3 1.2 -2.1 39 5.2 W 41 57 22 31 1003.0 1003.0 0.0
28/06:12pm 11.4 2.0 -2.8 37 5.5 W 37 57 20 31 1002.5 1002.5 0.0
28/06:00pm 11.7 4.1 -2.5 37 5.6 W 28 41 15 22 1002.4 1002.4 0.0
28/05:30pm 11.6 1.4 -0.2 44 4.8 W 43 61 23 33 1002.0 1002.0 0.0
28/05:00pm 11.1 1.8 0.5 48 4.4 W 39 57 21 31 1001.2 1001.2 0.0
28/04:30pm 11.0 0.0 1.0 50 4.2 WNW 48 70 26 38 1001.1 1001.1 0.0
28/04:04pm 11.4 0.5 1.4 50 4.2 WNW 48 67 26 36 1000.4 1000.4 0.0
28/04:00pm 11.1 -0.7 0.5 48 4.4 W 52 67 28 36 1000.3 1000.3 0.0
28/03:45pm 12.7 3.9 1.1 45 5.0 W 37 57 20 31 1000.1 1000.1 0.0
28/03:30pm 12.6 3.6 0.0 42 5.2 W 37 52 20 28 1000.0 1000.0 0.0
28/03:00pm 13.1 2.5 0.8 43 5.3 WNW 46 67 25 36 999.3 999.4 0.0
28/02:30pm 12.5 2.9 0.9 45 4.9 W 41 61 22 33 999.2 999.3 0.0
28/02:00pm 12.4 2.5 1.4 47 4.8 WNW 43 67 23 36 999.3 999.4 0.0
28/01:42pm 12.0 2.8 1.3 48 4.6 W 39 57 21 31 999.1 999.2 0.0
28/01:30pm 11.8 1.8 0.9 47 4.6 WNW 43 56 23 30 999.1 999.2 0.0
28/01:00pm 11.3 0.0 3.3 58 3.6 W 52 76 28 41 998.8 998.9 0.0
28/12:30pm 12.0 2.0 0.8 46 4.7 W 43 65 23 35 998.0 998.0 0.0
28/12:25pm 11.6 2.3 0.4 46 4.7 W 39 65 21 35 998.0 998.0 0.0
28/12:24pm 11.8 3.4 1.4 49 4.4 W 35 52 19 28 998.0 998.0 0.0
28/12:00pm 11.5 -1.1 1.5 50 4.3 W 57 76 31 41 998.2 998.3 0.0
28/11:30am 11.3 0.0 1.5 51 4.2 W 50 72 27 39 997.8 997.8 0.0
28/11:00am 10.7 0.8 1.5 53 3.9 WNW 43 72 23 39 997.7 997.7 0.0
28/10:32am 11.4 0.9 1.4 50 4.2 W 46 69 25 37 997.2 997.2 0.0
28/10:30am 11.1 0.6 1.6 52 4.0 WNW 46 57 25 31 997.4 997.4 0.0
28/10:00am 10.7 2.6 3.5 61 3.2 WNW 35 54 19 29 997.3 997.3 0.0
28/09:30am 9.5 0.5 2.6 62 3.0 W 39 72 21 39 997.0 997.0 0.0
28/09:29am 10.4 1.4 2.5 58 3.4 W 39 72 21 39 997.0 997.0 0.0
28/09:10am 11.5 3.2 2.0 52 4.1 WNW 35 54 19 29 996.5 996.5 0.0
28/09:00am 10.9 1.9 2.5 56 3.7 WNW 39 54 21 29 996.4 996.4 1.8
28/08:30am 11.0 2.4 2.8 57 3.6 WNW 37 61 20 33 996.6 996.6 1.8
28/08:03am 10.4 1.9 3.0 60 3.2 WNW 37 59 20 32 996.1 996.1 1.8
28/08:00am 10.4 1.9 3.0 60 3.3 WNW 37 52 20 28 996.2 996.2 1.8
28/07:30am 9.7 2.7 4.3 69 2.4 NW 30 52 16 28 995.7 995.7 1.8
28/07:13am 9.5 1.3 2.8 63 2.9 WNW 35 61 19 33 995.0 995.0 1.8
28/07:00am 9.3 1.7 3.9 69 2.4 WNW 33 46 18 25 995.0 995.0 1.8
28/06:35am 9.6 1.3 4.0 68 2.5 WNW 37 61 20 33 995.0 995.0 1.8
28/06:30am 9.5 1.9 4.1 69 2.4 WNW 33 50 18 27 994.8 994.8 1.8
28/06:09am 9.5 2.2 5.5 76 1.8 WNW 33 52 18 28 994.6 994.6 1.8
28/06:00am 9.9 1.6 6.1 77 1.8 WNW 39 56 21 30 995.2 995.2 1.8
28/05:42am 10.4 2.2 6.5 77 1.8 NW 39 63 21 34 994.5 994.5 1.8
28/05:30am 10.4 1.0 7.1 80 1.6 NW 46 59 25 32 994.0 994.0 1.8
28/05:00am 10.9 0.8 7.2 78 1.8 NW 50 72 27 39 993.8 993.8 1.8
28/04:30am 10.5 1.8 7.9 84 1.3 NNW 43 63 23 34 994.0 994.0 1.8
28/04:26am 10.5 1.9 8.1 85 1.2 NNW 43 63 23 34 994.0 994.0 1.8
28/04:00am 10.1 1.4 7.7 85 1.2 NNW 43 57 23 31 994.3 994.3 1.8
28/03:30am 10.5 1.2 7.4 81 1.5 NNW 46 67 25 36 995.3 995.3 1.8
28/03:20am 10.3 1.5 7.4 82 1.4 NNW 43 61 23 33 995.5 995.5 1.8
28/03:00am 10.0 1.5 6.9 81 1.5 NNW 41 56 22 30 996.0 996.0 1.8
28/02:30am 10.4 1.2 5.6 72 2.2 NNW 43 54 23 29 997.2 997.2 1.8
28/02:00am 9.6 1.1 5.2 74 2.0 NNW 39 61 21 33 998.2 998.3 1.8
28/01:59am 9.7 1.2 5.3 74 2.0 NNW 39 61 21 33 998.3 998.4 1.8
28/01:30am 8.4 1.5 4.6 77 1.7 NNW 30 41 16 22 999.1 999.2 1.8
28/01:00am 7.5 1.9 3.7 77 1.7 N 22 32 12 17 1000.2 1000.2 1.8
28/12:30am 7.9 1.5 3.2 72 2.0 N 26 39 14 21 1001.3 1001.3 1.8
28/12:00am 7.1 1.3 2.2 71 2.0 N 22 33 12 18 1001.3 1001.3 1.8

Other Formats:

Comma delimited format used in spreadsheet applications
http://www.bom.gov.au/fwo/IDT60801/IDT60801.95966.axf

JavaScript Object Notation format (JSON) in row-major order
http://www.bom.gov.au/fwo/IDT60801/IDT60801.95966.json